<?xml version='1.0' encoding='UTF-8'?><gpx version="1.1" creator="JPX - https://github.com/jenetics/jpx" xmlns="http://www.topografix.com/GPX/1/1"><trk><trkseg><trkpt lat="37.85538594265214" lon="13.808694824168098"><ele>666.0</ele><time>2026-04-17T15:32:47.025Z</time></trkpt><trkpt lat="37.855343876183" lon="13.808760688000788"><ele>666.0</ele><time>2026-04-17T15:32:59.024Z</time></trkpt><trkpt lat="37.8552853599564" lon="13.808818575033657"><ele>666.0</ele><time>2026-04-17T15:33:04.024Z</time></trkpt><trkpt lat="37.855256898913765" lon="13.80890227284525"><ele>666.0</ele><time>2026-04-17T15:33:23.024Z</time></trkpt><trkpt lat="37.8552349401535" lon="13.808981366601875"><ele>666.0</ele><time>2026-04-17T15:33:29.025Z</time></trkpt><trkpt lat="37.85520715724834" lon="13.809067229346224"><ele>666.0</ele><time>2026-04-17T15:33:35.025Z</time></trkpt><trkpt lat="37.85515494801553" lon="13.809141699944849"><ele>666.0</ele><time>2026-04-17T15:33:43.025Z</time></trkpt><trkpt lat="37.855107339631054" lon="13.809199216337793"><ele>666.5714285714286</ele><time>2026-04-17T15:33:50.025Z</time></trkpt><trkpt lat="37.855076202395544" lon="13.80927457469197"><ele>667.1428571428571</ele><time>2026-04-17T15:34:04.024Z</time></trkpt><trkpt lat="37.855014285645424" lon="13.809313132087674"><ele>667.7142857142857</ele><time>2026-04-17T15:34:11.027Z</time></trkpt><trkpt lat="37.85494304483651" lon="13.809301323683444"><ele>668.2857142857142</ele><time>2026-04-17T15:34:18.024Z</time></trkpt><trkpt lat="37.854878953957815" lon="13.809304606323101"><ele>668.8571428571429</ele><time>2026-04-17T15:34:27.022Z</time></trkpt><trkpt lat="37.85482114917704" lon="13.809245056269754"><ele>669.4285714285713</ele><time>2026-04-17T15:34:48.999Z</time></trkpt><trkpt lat="37.85477143889833" lon="13.809195437144705"><ele>670.0</ele><time>2026-04-17T15:34:55.999Z</time></trkpt><trkpt lat="37.85472038021109" lon="13.809139170613967"><ele>669.9999999999999</ele><time>2026-04-17T15:35:45.999Z</time></trkpt><trkpt lat="37.85468857674855" lon="13.809062617586545"><ele>670.0</ele><time>2026-04-17T15:35:56.999Z</time></trkpt><trkpt lat="37.854630818983736" lon="13.809022491765642"><ele>670.0</ele><time>2026-04-17T15:36:02.999Z</time></trkpt><trkpt lat="37.85458392637094" lon="13.80896812930979"><ele>670.0</ele><time>2026-04-17T15:36:11.999Z</time></trkpt><trkpt lat="37.85451968832073" lon="13.808948838273311"><ele>670.0</ele><time>2026-04-17T15:36:19.999Z</time></trkpt><trkpt lat="37.85446683895747" lon="13.808898412061838"><ele>669.9999999999999</ele><time>2026-04-17T15:36:28.999Z</time></trkpt><trkpt lat="37.85440414587009" lon="13.808884302882573"><ele>670.0</ele><time>2026-04-17T15:36:36.999Z</time></trkpt><trkpt lat="37.85433881467778" lon="13.808862928563734"><ele>669.9999999999999</ele><time>2026-04-17T15:36:44.999Z</time></trkpt><trkpt lat="37.85429131793558" lon="13.808802657615377"><ele>670.0</ele><time>2026-04-17T15:37:03.999Z</time></trkpt><trkpt lat="37.8542324808445" lon="13.808768670145183"><ele>670.0</ele><time>2026-04-17T15:37:48.999Z</time></trkpt><trkpt lat="37.85417419795814" lon="13.808729761201757"><ele>670.0</ele><time>2026-04-17T15:37:57.999Z</time></trkpt><trkpt lat="37.85410329838168" lon="13.808731290199532"><ele>670.0</ele><time>2026-04-17T15:38:05.999Z</time></trkpt><trkpt lat="37.8540383344707" lon="13.808703048301991"><ele>669.9999999999999</ele><time>2026-04-17T15:39:11Z</time></trkpt><trkpt lat="37.85396566032597" lon="13.808704566081795"><ele>670.0</ele><time>2026-04-17T15:39:23Z</time></trkpt><trkpt lat="37.85394972410969" lon="13.808620940631984"><ele>671.2857142857142</ele><time>2026-04-17T15:39:32Z</time></trkpt><trkpt lat="37.85393780087054" lon="13.808541233348322"><ele>672.5714285714286</ele><time>2026-04-17T15:39:46Z</time></trkpt><trkpt lat="37.8538941080417" lon="13.808473353594398"><ele>673.8571428571429</ele><time>2026-04-17T15:40:14Z</time></trkpt><trkpt lat="37.85383175911299" lon="13.808440637944045"><ele>675.1428571428571</ele><time>2026-04-17T15:40:23Z</time></trkpt><trkpt lat="37.85376763422356" lon="13.808420071585765"><ele>676.4285714285714</ele><time>2026-04-17T15:40:31.999Z</time></trkpt><trkpt lat="37.85370364027444" lon="13.808397687364387"><ele>677.7142857142857</ele><time>2026-04-17T15:40:39.999Z</time></trkpt><trkpt lat="37.85364803575384" lon="13.80835616917567"><ele>679.0</ele><time>2026-04-17T15:40:46.999Z</time></trkpt><trkpt lat="37.85358184793911" lon="13.808322904214904"><ele>679.0</ele><time>2026-04-17T15:40:54.999Z</time></trkpt><trkpt lat="37.853525712437445" lon="13.808277595938389"><ele>679.0</ele><time>2026-04-17T15:41:02Z</time></trkpt><trkpt lat="37.853461917994444" lon="13.808292387397504"><ele>679.0</ele><time>2026-04-17T15:42:02Z</time></trkpt><trkpt lat="37.85339626642703" lon="13.808281582810928"><ele>679.0</ele><time>2026-04-17T15:42:10Z</time></trkpt><trkpt lat="37.85333085073689" lon="13.808298815314133"><ele>679.0</ele><time>2026-04-17T15:42:36Z</time></trkpt><trkpt lat="37.85326522042253" lon="13.808290706531087"><ele>679.0</ele><time>2026-04-17T15:42:43.999Z</time></trkpt><trkpt lat="37.853193152887485" lon="13.808287542770183"><ele>679.0</ele><time>2026-04-17T15:42:51.999Z</time></trkpt><trkpt lat="37.85312954371456" lon="13.808278334510753"><ele>681.4285714285714</ele><time>2026-04-17T15:42:59.999Z</time></trkpt><trkpt lat="37.85306332118259" lon="13.808295662444296"><ele>683.8571428571429</ele><time>2026-04-17T15:43:20Z</time></trkpt><trkpt lat="37.852999664186044" lon="13.808302291711168"><ele>686.2857142857142</ele><time>2026-04-17T15:43:34Z</time></trkpt><trkpt lat="37.85292669656027" lon="13.808314342584982"><ele>688.7142857142858</ele><time>2026-04-17T15:43:53Z</time></trkpt><trkpt lat="37.85286327414547" lon="13.80828238928869"><ele>691.1428571428571</ele><time>2026-04-17T15:44:01Z</time></trkpt><trkpt lat="37.8528119303218" lon="13.808225427039998"><ele>693.5714285714286</ele><time>2026-04-17T15:44:21.999Z</time></trkpt><trkpt lat="37.85277047663267" lon="13.808158630280817"><ele>696.0</ele><time>2026-04-17T15:44:30.999Z</time></trkpt><trkpt lat="37.852719971908584" lon="13.808110807101817"><ele>696.0</ele><time>2026-04-17T15:44:42.999Z</time></trkpt><trkpt lat="37.85266910509645" lon="13.808057539817916"><ele>696.0</ele><time>2026-04-17T15:44:50.999Z</time></trkpt><trkpt lat="37.852611316744" lon="13.808004799992824"><ele>696.0</ele><time>2026-04-17T15:44:59.999Z</time></trkpt><trkpt lat="37.85257101487412" lon="13.807942085104873"><ele>696.0</ele><time>2026-04-17T15:45:06.999Z</time></trkpt><trkpt lat="37.852542906548614" lon="13.80786584085298"><ele>696.0</ele><time>2026-04-17T15:45:15.999Z</time></trkpt><trkpt lat="37.85248258071694" lon="13.807827157502276"><ele>696.0</ele><time>2026-04-17T15:45:24.999Z</time></trkpt><trkpt lat="37.85241042481372" lon="13.807819621420997"><ele>696.0</ele><time>2026-04-17T15:45:35.999Z</time></trkpt><trkpt lat="37.852355059712664" lon="13.80786208669335"><ele>698.4285714285714</ele><time>2026-04-17T15:45:44.999Z</time></trkpt><trkpt lat="37.85229535878968" lon="13.807912934159571"><ele>700.8571428571429</ele><time>2026-04-17T15:45:53.999Z</time></trkpt><trkpt lat="37.85222627251745" lon="13.807949703742977"><ele>703.2857142857142</ele><time>2026-04-17T15:46:08.999Z</time></trkpt><trkpt lat="37.85228696451074" lon="13.807913186255876"><ele>705.7142857142858</ele><time>2026-04-17T15:46:52.999Z</time></trkpt><trkpt lat="37.85232342261801" lon="13.807978526694146"><ele>708.1428571428572</ele><time>2026-04-17T15:47:39Z</time></trkpt><trkpt lat="37.85234333560367" lon="13.807899085789273"><ele>710.5714285714286</ele><time>2026-04-17T15:48:37Z</time></trkpt><trkpt lat="37.85240218928651" lon="13.807828048802106"><ele>713.0</ele><time>2026-04-17T15:48:44Z</time></trkpt><trkpt lat="37.8524704528562" lon="13.807828022622783"><ele>713.0</ele><time>2026-04-17T15:48:50Z</time></trkpt><trkpt lat="37.852526586559286" lon="13.807878940896776"><ele>713.0</ele><time>2026-04-17T15:49:00Z</time></trkpt><trkpt lat="37.852576978039885" lon="13.807940856859767"><ele>713.0</ele><time>2026-04-17T15:49:07Z</time></trkpt><trkpt lat="37.852614902508876" lon="13.808008710432862"><ele>713.0</ele><time>2026-04-17T15:49:14Z</time></trkpt><trkpt lat="37.8526677570745" lon="13.808062570839438"><ele>713.0</ele><time>2026-04-17T15:49:22Z</time></trkpt><trkpt lat="37.852713468712054" lon="13.808126096427605"><ele>713.0</ele><time>2026-04-17T15:49:29.001Z</time></trkpt><trkpt lat="37.85276578965201" lon="13.808181888174298"><ele>713.0</ele><time>2026-04-17T15:49:36.001Z</time></trkpt><trkpt lat="37.85281983028822" lon="13.808231280254587"><ele>710.5714285714286</ele><time>2026-04-17T15:49:42.001Z</time></trkpt><trkpt lat="37.85287227043592" lon="13.808292089460172"><ele>708.1428571428572</ele><time>2026-04-17T15:49:48.001Z</time></trkpt><trkpt lat="37.852939464392186" lon="13.808307213796313"><ele>705.7142857142858</ele><time>2026-04-17T15:49:55Z</time></trkpt><trkpt lat="37.85300821534293" lon="13.808310572741302"><ele>703.2857142857142</ele><time>2026-04-17T15:50:09Z</time></trkpt><trkpt lat="37.8530767589324" lon="13.808304538559224"><ele>700.8571428571429</ele><time>2026-04-17T15:50:18Z</time></trkpt><trkpt lat="37.85314155681761" lon="13.80829232436615"><ele>698.4285714285714</ele><time>2026-04-17T15:50:28Z</time></trkpt><trkpt lat="37.85320614630542" lon="13.80829643932847"><ele>696.0</ele><time>2026-04-17T15:50:35Z</time></trkpt><trkpt lat="37.85328161739771" lon="13.808310801974462"><ele>696.0</ele><time>2026-04-17T15:50:41Z</time></trkpt><trkpt lat="37.853345925147" lon="13.808316849488946"><ele>696.0</ele><time>2026-04-17T15:50:46Z</time></trkpt><trkpt lat="37.853425170527636" lon="13.808314920728286"><ele>696.0</ele><time>2026-04-17T15:50:51Z</time></trkpt><trkpt lat="37.85348564466121" lon="13.808283347806038"><ele>696.0</ele><time>2026-04-17T15:51:06Z</time></trkpt><trkpt lat="37.853549228352996" lon="13.808293295296306"><ele>696.0</ele><time>2026-04-17T15:51:13Z</time></trkpt><trkpt lat="37.853599757274075" lon="13.808344591558628"><ele>696.0</ele><time>2026-04-17T15:51:20Z</time></trkpt><trkpt lat="37.8536698801107" lon="13.80838059251638"><ele>696.0</ele><time>2026-04-17T15:51:26Z</time></trkpt><trkpt lat="37.85373870906566" lon="13.808375158328664"><ele>693.8571428571429</ele><time>2026-04-17T15:51:32.001Z</time></trkpt><trkpt lat="37.85379032351189" lon="13.808425634376487"><ele>691.7142857142858</ele><time>2026-04-17T15:51:40.001Z</time></trkpt><trkpt lat="37.85385396998537" lon="13.808457619069172"><ele>689.5714285714287</ele><time>2026-04-17T15:51:47.001Z</time></trkpt><trkpt lat="37.85390343223265" lon="13.808530949922165"><ele>687.4285714285714</ele><time>2026-04-17T15:51:55.001Z</time></trkpt><trkpt lat="37.8539357144249" lon="13.808603437263228"><ele>685.2857142857143</ele><time>2026-04-17T15:52:05Z</time></trkpt><trkpt lat="37.85398815140814" lon="13.808666618054719"><ele>683.1428571428572</ele><time>2026-04-17T15:52:13Z</time></trkpt><trkpt lat="37.854054634670014" lon="13.808696547754067"><ele>681.0</ele><time>2026-04-17T15:52:21Z</time></trkpt><trkpt lat="37.854119321005825" lon="13.808734691846924"><ele>681.0000000000001</ele><time>2026-04-17T15:52:30Z</time></trkpt><trkpt lat="37.85417427845615" lon="13.808785926887207"><ele>681.0</ele><time>2026-04-17T15:52:48Z</time></trkpt><trkpt lat="37.85424279082433" lon="13.808825811171676"><ele>681.0</ele><time>2026-04-17T15:52:57Z</time></trkpt><trkpt lat="37.85430166336222" lon="13.808859256224295"><ele>681.0</ele><time>2026-04-17T15:53:04Z</time></trkpt><trkpt lat="37.85436532173318" lon="13.808868176850616"><ele>681.0</ele><time>2026-04-17T15:53:10Z</time></trkpt><trkpt lat="37.85442568471306" lon="13.808898428135548"><ele>681.0000000000001</ele><time>2026-04-17T15:53:16Z</time></trkpt><trkpt lat="37.85448951003938" lon="13.808919612662628"><ele>681.0</ele><time>2026-04-17T15:53:22Z</time></trkpt><trkpt lat="37.85455584036878" lon="13.808948421665274"><ele>679.4285714285714</ele><time>2026-04-17T15:53:27.999Z</time></trkpt><trkpt lat="37.85461166533659" lon="13.808991721976573"><ele>677.8571428571429</ele><time>2026-04-17T15:53:33.999Z</time></trkpt><trkpt lat="37.854649442698964" lon="13.809056954511854"><ele>676.2857142857142</ele><time>2026-04-17T15:53:39Z</time></trkpt><trkpt lat="37.85470992403863" lon="13.809098971741454"><ele>674.7142857142858</ele><time>2026-04-17T15:53:45Z</time></trkpt><trkpt lat="37.854752712867324" lon="13.809169016521036"><ele>673.1428571428571</ele><time>2026-04-17T15:53:56Z</time></trkpt><trkpt lat="37.854788058338656" lon="13.809239591866353"><ele>671.5714285714286</ele><time>2026-04-17T15:54:03Z</time></trkpt><trkpt lat="37.854855624929336" lon="13.809270097906357"><ele>670.0</ele><time>2026-04-17T15:54:16Z</time></trkpt><trkpt lat="37.85493177303058" lon="13.809285580439708"><ele>669.9999999999999</ele><time>2026-04-17T15:54:28Z</time></trkpt><trkpt lat="37.85499478848003" lon="13.809290180736092"><ele>670.0</ele><time>2026-04-17T15:54:34Z</time></trkpt><trkpt lat="37.85500476102616" lon="13.80937447585247"><ele>670.0</ele><time>2026-04-17T15:54:40Z</time></trkpt><trkpt lat="37.85496385781658" lon="13.809456754940445"><ele>670.0</ele><time>2026-04-17T15:54:46.999Z</time></trkpt><trkpt lat="37.854922027404264" lon="13.80951805731462"><ele>670.0</ele><time>2026-04-17T15:54:53.999Z</time></trkpt><trkpt lat="37.854898535024276" lon="13.809594691536306"><ele>669.9999999999999</ele><time>2026-04-17T15:55:01.999Z</time></trkpt><trkpt lat="37.85484970016304" lon="13.809658571983324"><ele>670.0</ele><time>2026-04-17T15:55:09.999Z</time></trkpt><trkpt lat="37.85483399496655" lon="13.80973610698666"><ele>670.9999999999999</ele><time>2026-04-17T15:55:26.999Z</time></trkpt><trkpt lat="37.85478071366955" lon="13.809793862217973"><ele>672.0</ele><time>2026-04-17T15:55:52Z</time></trkpt><trkpt lat="37.854739145903025" lon="13.809865325625017"><ele>673.0</ele><time>2026-04-17T15:56:03Z</time></trkpt><trkpt lat="37.85468934681034" lon="13.809921236990311"><ele>674.0</ele><time>2026-04-17T15:57:32.999Z</time></trkpt><trkpt lat="37.85465284639738" lon="13.809986536335465"><ele>675.0</ele><time>2026-04-17T15:57:39.999Z</time></trkpt><trkpt lat="37.854618164771516" lon="13.810057913972924"><ele>675.9999999999999</ele><time>2026-04-17T15:57:46.999Z</time></trkpt><trkpt lat="37.85456662543878" lon="13.810121131615505"><ele>677.0</ele><time>2026-04-17T15:58:03Z</time></trkpt><trkpt lat="37.85453042470526" lon="13.810202417565762"><ele>678.2857142857142</ele><time>2026-04-17T15:58:14Z</time></trkpt><trkpt lat="37.854492647626444" lon="13.810289495597745"><ele>679.5714285714286</ele><time>2026-04-17T15:58:24Z</time></trkpt><trkpt lat="37.854443487091075" lon="13.810375032830557"><ele>680.8571428571429</ele><time>2026-04-17T15:58:31Z</time></trkpt><trkpt lat="37.85438710639159" lon="13.810433420058047"><ele>682.1428571428571</ele><time>2026-04-17T15:59:09.999Z</time></trkpt><trkpt lat="37.85435782269939" lon="13.810511121133368"><ele>683.4285714285714</ele><time>2026-04-17T15:59:15.999Z</time></trkpt><trkpt lat="37.85433186700522" lon="13.810595735651967"><ele>684.7142857142857</ele><time>2026-04-17T15:59:26.999Z</time></trkpt><trkpt lat="37.85431694349723" lon="13.810674333499785"><ele>686.0</ele><time>2026-04-17T15:59:33.999Z</time></trkpt><trkpt lat="37.85433112802288" lon="13.810770617208602"><ele>686.0</ele><time>2026-04-17T15:59:44.999Z</time></trkpt><trkpt lat="37.85428903588654" lon="13.810844042481119"><ele>686.0</ele><time>2026-04-17T16:00:16.999Z</time></trkpt><trkpt lat="37.854247614108964" lon="13.810917902062966"><ele>686.0</ele><time>2026-04-17T16:00:23.999Z</time></trkpt><trkpt lat="37.85427901034581" lon="13.810837671599105"><ele>686.0</ele><time>2026-04-17T16:00:38.999Z</time></trkpt><trkpt lat="37.854336299336765" lon="13.810779755856855"><ele>686.0</ele><time>2026-04-17T16:00:47.999Z</time></trkpt><trkpt lat="37.85440409585355" lon="13.81081178259047"><ele>686.0</ele><time>2026-04-17T16:00:54.999Z</time></trkpt><trkpt lat="37.85433967940252" lon="13.810803822543566"><ele>686.0</ele><time>2026-04-17T16:01:23.999Z</time></trkpt><trkpt lat="37.85430493889854" lon="13.810724751060912"><ele>686.0</ele><time>2026-04-17T16:01:30.999Z</time></trkpt><trkpt lat="37.85430107105692" lon="13.810638957084086"><ele>686.0</ele><time>2026-04-17T16:01:36.999Z</time></trkpt><trkpt lat="37.854342918633726" lon="13.810576420944702"><ele>686.0</ele><time>2026-04-17T16:01:42.999Z</time></trkpt><trkpt lat="37.85438292423666" lon="13.810500809535448"><ele>686.0</ele><time>2026-04-17T16:01:48.999Z</time></trkpt><trkpt lat="37.85440046080927" lon="13.810408538889636"><ele>686.0</ele><time>2026-04-17T16:02:18.999Z</time></trkpt><trkpt lat="37.85443519321131" lon="13.810341845400636"><ele>686.0</ele><time>2026-04-17T16:02:39.999Z</time></trkpt><trkpt lat="37.85450425486155" lon="13.810302837434277"><ele>686.0</ele><time>2026-04-17T16:02:47.999Z</time></trkpt><trkpt lat="37.854541166310945" lon="13.810238010846527"><ele>686.0</ele><time>2026-04-17T16:02:53.999Z</time></trkpt><trkpt lat="37.85459733052859" lon="13.810178970229465"><ele>686.0</ele><time>2026-04-17T16:03:00.999Z</time></trkpt><trkpt lat="37.85463403164922" lon="13.810113350089638"><ele>686.0</ele><time>2026-04-17T16:03:06.999Z</time></trkpt><trkpt lat="37.85467407119972" lon="13.810041914128108"><ele>686.0</ele><time>2026-04-17T16:03:12.999Z</time></trkpt><trkpt lat="37.854723613514174" lon="13.809978190555597"><ele>686.0</ele><time>2026-04-17T16:03:19.999Z</time></trkpt><trkpt lat="37.85478601472582" lon="13.809995926794043"><ele>686.0</ele><time>2026-04-17T16:03:33.999Z</time></trkpt><trkpt lat="37.85471957599776" lon="13.810023631808779"><ele>686.0</ele><time>2026-04-17T16:04:03.999Z</time></trkpt><trkpt lat="37.854701203282715" lon="13.809946220110824"><ele>684.7142857142857</ele><time>2026-04-17T16:04:14Z</time></trkpt><trkpt lat="37.85475834813122" lon="13.809875619603098"><ele>683.4285714285714</ele><time>2026-04-17T16:04:25Z</time></trkpt><trkpt lat="37.85480465652866" lon="13.809816911607516"><ele>682.1428571428571</ele><time>2026-04-17T16:04:30Z</time></trkpt><trkpt lat="37.85485171730412" lon="13.80975427400729"><ele>680.8571428571429</ele><time>2026-04-17T16:05:30Z</time></trkpt><trkpt lat="37.85489775570003" lon="13.809694217667404"><ele>679.5714285714286</ele><time>2026-04-17T16:05:35.999Z</time></trkpt><trkpt lat="37.85493663602659" lon="13.809623421404078"><ele>678.2857142857142</ele><time>2026-04-17T16:05:40.999Z</time></trkpt><trkpt lat="37.854969941418865" lon="13.809530503731805"><ele>677.0</ele><time>2026-04-17T16:05:46.999Z</time></trkpt><trkpt lat="37.855007941865054" lon="13.809451159028542"><ele>676.9999999999999</ele><time>2026-04-17T16:05:53.999Z</time></trkpt><trkpt lat="37.855045990319546" lon="13.809378465417383"><ele>677.0</ele><time>2026-04-17T16:05:59.999Z</time></trkpt><trkpt lat="37.85507397609087" lon="13.809305369202413"><ele>677.0</ele><time>2026-04-17T16:06:03.999Z</time></trkpt><trkpt lat="37.85510922751145" lon="13.809224703287848"><ele>677.0</ele><time>2026-04-17T16:06:08.999Z</time></trkpt><trkpt lat="37.85517365037525" lon="13.80917944130009"><ele>677.0</ele><time>2026-04-17T16:06:11.999Z</time></trkpt><trkpt lat="37.855206730207186" lon="13.809106077309819"><ele>676.9999999999999</ele><time>2026-04-17T16:06:17Z</time></trkpt><trkpt lat="37.855234574827904" lon="13.809030625702706"><ele>677.0</ele><time>2026-04-17T16:06:22Z</time></trkpt><trkpt lat="37.85526353061785" lon="13.808958311806125"><ele>675.4285714285713</ele><time>2026-04-17T16:06:27Z</time></trkpt><trkpt lat="37.85527770428855" lon="13.808879962813183"><ele>673.8571428571429</ele><time>2026-04-17T16:06:32Z</time></trkpt><trkpt lat="37.8552997913077" lon="13.808799751553988"><ele>672.2857142857142</ele><time>2026-04-17T16:06:37Z</time></trkpt><trkpt lat="37.855333070584706" lon="13.808730187445184"><ele>670.7142857142857</ele><time>2026-04-17T16:06:42Z</time></trkpt><trkpt lat="37.85537760739527" lon="13.80866938988521"><ele>669.1428571428571</ele><time>2026-04-17T16:06:47Z</time></trkpt><trkpt lat="37.855412610378" lon="13.80860307899391"><ele>667.5714285714286</ele><time>2026-04-17T16:06:51Z</time></trkpt><trkpt lat="37.85543800448826" lon="13.808528736069603"><ele>666.0</ele><time>2026-04-17T16:06:55Z</time></trkpt><trkpt lat="37.855464211721355" lon="13.808447256725026"><ele>665.0</ele><time>2026-04-17T16:07:02Z</time></trkpt><trkpt lat="37.855484567933814" lon="13.808366724449309"><ele>664.0</ele><time>2026-04-17T16:07:07Z</time></trkpt><trkpt lat="37.85552326703663" lon="13.80830188411957"><ele>663.0</ele><time>2026-04-17T16:07:12Z</time></trkpt><trkpt lat="37.855548796780475" lon="13.808227849140104"><ele>662.0</ele><time>2026-04-17T16:07:17Z</time></trkpt><trkpt lat="37.855574952089825" lon="13.808153338189003"><ele>661.0</ele><time>2026-04-17T16:07:22Z</time></trkpt><trkpt lat="37.85557807667682" lon="13.808069248938192"><ele>660.0</ele><time>2026-04-17T16:07:30Z</time></trkpt><trkpt lat="37.85559805197692" lon="13.807985189476836"><ele>659.0</ele><time>2026-04-17T16:07:42.999Z</time></trkpt><trkpt lat="37.855542124694644" lon="13.808030439179351"><ele>659.0</ele><time>2026-04-17T16:09:08Z</time></trkpt><trkpt lat="37.855599145156845" lon="13.807995912946089"><ele>659.0</ele><time>2026-04-17T16:09:43.999Z</time></trkpt><trkpt lat="37.85564532358812" lon="13.807940213850856"><ele>659.0</ele><time>2026-04-17T16:09:47.999Z</time></trkpt><trkpt lat="37.85567980993378" lon="13.807871236933956"><ele>659.0</ele><time>2026-04-17T16:09:50.999Z</time></trkpt><trkpt lat="37.85572329021924" lon="13.807808765713451"><ele>659.0</ele><time>2026-04-17T16:09:54.999Z</time></trkpt><trkpt lat="37.85575407793618" lon="13.807733365002674"><ele>659.0</ele><time>2026-04-17T16:09:58.999Z</time></trkpt><trkpt lat="37.85577557594283" lon="13.807630778040423"><ele>659.0</ele><time>2026-04-17T16:10:01.999Z</time></trkpt><trkpt lat="37.855780522118096" lon="13.80754028748721"><ele>657.8571428571429</ele><time>2026-04-17T16:10:05.999Z</time></trkpt><trkpt lat="37.85579452067247" lon="13.807458777516512"><ele>656.7142857142857</ele><time>2026-04-17T16:10:08.999Z</time></trkpt><trkpt lat="37.85579308645237" lon="13.807377351396509"><ele>655.5714285714286</ele><time>2026-04-17T16:10:11.999Z</time></trkpt><trkpt lat="37.85580318637973" lon="13.80729644494909"><ele>654.4285714285714</ele><time>2026-04-17T16:10:14.999Z</time></trkpt><trkpt lat="37.85582444001737" lon="13.807210238764272"><ele>653.2857142857142</ele><time>2026-04-17T16:10:18.999Z</time></trkpt><trkpt lat="37.85583645209521" lon="13.807128115282998"><ele>652.1428571428571</ele><time>2026-04-17T16:10:22.999Z</time></trkpt><trkpt lat="37.855872975814044" lon="13.807040297437506"><ele>651.0</ele><time>2026-04-17T16:10:27.001Z</time></trkpt><trkpt lat="37.855906820798346" lon="13.806955065510198"><ele>651.0</ele><time>2026-04-17T16:10:31.001Z</time></trkpt><trkpt lat="37.85592380366069" lon="13.80687279314601"><ele>651.0</ele><time>2026-04-17T16:10:34.001Z</time></trkpt><trkpt lat="37.85593312201531" lon="13.806788077602915"><ele>651.0</ele><time>2026-04-17T16:10:37.001Z</time></trkpt><trkpt lat="37.855936543995114" lon="13.806703601073142"><ele>651.0</ele><time>2026-04-17T16:10:40.001Z</time></trkpt><trkpt lat="37.85593737252766" lon="13.80661632265952"><ele>651.0</ele><time>2026-04-17T16:10:43Z</time></trkpt><trkpt lat="37.855936642702346" lon="13.806512243163816"><ele>651.0</ele><time>2026-04-17T16:10:48Z</time></trkpt><trkpt lat="37.85593937489476" lon="13.806428134748847"><ele>651.0</ele><time>2026-04-17T16:10:52Z</time></trkpt><trkpt lat="37.85594238416051" lon="13.806339343240328"><ele>650.1666666666666</ele><time>2026-04-17T16:10:57Z</time></trkpt><trkpt lat="37.85594553258915" lon="13.806251807353776"><ele>649.3333333333334</ele><time>2026-04-17T16:11:01Z</time></trkpt><trkpt lat="37.85592877506961" lon="13.806150988026138"><ele>648.5</ele><time>2026-04-17T16:11:04Z</time></trkpt><trkpt lat="37.85592317135471" lon="13.806057972010528"><ele>647.6666666666667</ele><time>2026-04-17T16:11:07Z</time></trkpt><trkpt lat="37.855924596231084" lon="13.80594237695106"><ele>646.8333333333334</ele><time>2026-04-17T16:11:10Z</time></trkpt><trkpt lat="37.85591600397187" lon="13.805859905228838"><ele>646.0</ele><time>2026-04-17T16:11:12Z</time></trkpt><trkpt lat="37.85592039547398" lon="13.805754072001687"><ele>645.1428571428572</ele><time>2026-04-17T16:11:15Z</time></trkpt><trkpt lat="37.85592517969636" lon="13.80566946116686"><ele>644.2857142857143</ele><time>2026-04-17T16:11:17Z</time></trkpt><trkpt lat="37.85592909378403" lon="13.805582269912136"><ele>643.4285714285714</ele><time>2026-04-17T16:11:19Z</time></trkpt><trkpt lat="37.855932621526954" lon="13.805501272544044"><ele>642.5714285714287</ele><time>2026-04-17T16:11:21Z</time></trkpt><trkpt lat="37.8559358111161" lon="13.80540268787677"><ele>641.7142857142858</ele><time>2026-04-17T16:11:23Z</time></trkpt><trkpt lat="37.85594334748826" lon="13.805309244956735"><ele>640.8571428571429</ele><time>2026-04-17T16:11:25Z</time></trkpt><trkpt lat="37.85595315100445" lon="13.805214262701135"><ele>640.0</ele><time>2026-04-17T16:11:27Z</time></trkpt><trkpt lat="37.85597509338935" lon="13.805129034802846"><ele>638.1666666666667</ele><time>2026-04-17T16:11:29Z</time></trkpt><trkpt lat="37.856001423195615" lon="13.805045387885436"><ele>636.3333333333334</ele><time>2026-04-17T16:11:31Z</time></trkpt><trkpt lat="37.856033142076875" lon="13.804973691205257"><ele>634.5</ele><time>2026-04-17T16:11:33Z</time></trkpt><trkpt lat="37.85608263493639" lon="13.804907827396994"><ele>632.6666666666666</ele><time>2026-04-17T16:11:35Z</time></trkpt><trkpt lat="37.85611862437685" lon="13.804820091244656"><ele>630.8333333333333</ele><time>2026-04-17T16:11:37Z</time></trkpt><trkpt lat="37.85615060159713" lon="13.804675424667652"><ele>629.0</ele><time>2026-04-17T16:11:42Z</time></trkpt><trkpt lat="37.85620203911388" lon="13.804548145763631"><ele>629.0</ele><time>2026-04-17T16:11:43.999Z</time></trkpt><trkpt lat="37.85627309051219" lon="13.804441017399299"><ele>629.0</ele><time>2026-04-17T16:11:45.999Z</time></trkpt><trkpt lat="37.85632139693891" lon="13.804366966230976"><ele>629.0</ele><time>2026-04-17T16:11:47.999Z</time></trkpt><trkpt lat="37.85635169920605" lon="13.804293408301728"><ele>629.0</ele><time>2026-04-17T16:11:51.999Z</time></trkpt><trkpt lat="37.856396271199955" lon="13.80418475339288"><ele>629.0</ele><time>2026-04-17T16:11:55.999Z</time></trkpt><trkpt lat="37.856449150473416" lon="13.804074297535799"><ele>628.6666666666666</ele><time>2026-04-17T16:11:59.999Z</time></trkpt><trkpt lat="37.85649923973569" lon="13.803974064306065"><ele>628.3333333333333</ele><time>2026-04-17T16:12:02.999Z</time></trkpt><trkpt lat="37.85654918178246" lon="13.803879162921572"><ele>628.0</ele><time>2026-04-17T16:12:04.999Z</time></trkpt><trkpt lat="37.85659999748206" lon="13.8037945620507"><ele>627.6666666666666</ele><time>2026-04-17T16:12:06.999Z</time></trkpt><trkpt lat="37.85662832428971" lon="13.803682334035418"><ele>627.3333333333334</ele><time>2026-04-17T16:12:09.999Z</time></trkpt><trkpt lat="37.85668232436556" lon="13.803602213824567"><ele>627.0</ele><time>2026-04-17T16:12:13.999Z</time></trkpt><trkpt lat="37.856710925021176" lon="13.80352935050744"><ele>626.5</ele><time>2026-04-17T16:12:16.999Z</time></trkpt><trkpt lat="37.85676233948865" lon="13.803412524998008"><ele>626.0</ele><time>2026-04-17T16:12:19.999Z</time></trkpt><trkpt lat="37.85680223921959" lon="13.803319028598795"><ele>625.5</ele><time>2026-04-17T16:12:21.999Z</time></trkpt><trkpt lat="37.85683109533569" lon="13.80324448546353"><ele>625.0</ele><time>2026-04-17T16:12:23.999Z</time></trkpt><trkpt lat="37.85687535895273" lon="13.803147313429443"><ele>624.5</ele><time>2026-04-17T16:12:26.999Z</time></trkpt><trkpt lat="37.85690901668404" lon="13.803074086195702"><ele>624.0</ele><time>2026-04-17T16:12:28.999Z</time></trkpt><trkpt lat="37.856937378992235" lon="13.803000308904727"><ele>622.0</ele><time>2026-04-17T16:12:31.001Z</time></trkpt><trkpt lat="37.85697959383811" lon="13.802906756360363"><ele>620.0</ele><time>2026-04-17T16:12:34.001Z</time></trkpt><trkpt lat="37.85701072755007" lon="13.802822169038933"><ele>618.0</ele><time>2026-04-17T16:12:37.001Z</time></trkpt><trkpt lat="37.85704428412792" lon="13.80274989210443"><ele>616.0</ele><time>2026-04-17T16:12:40Z</time></trkpt><trkpt lat="37.85705539000919" lon="13.80266502173771"><ele>614.0</ele><time>2026-04-17T16:12:43Z</time></trkpt><trkpt lat="37.85706964549346" lon="13.802564138938287"><ele>612.0</ele><time>2026-04-17T16:12:48Z</time></trkpt><trkpt lat="37.857121507906975" lon="13.802508990928635"><ele>610.0</ele><time>2026-04-17T16:12:51Z</time></trkpt><trkpt lat="37.85713929477302" lon="13.802389550534919"><ele>609.6666666666667</ele><time>2026-04-17T16:12:53Z</time></trkpt><trkpt lat="37.85714094927532" lon="13.802283623887373"><ele>609.3333333333334</ele><time>2026-04-17T16:12:55Z</time></trkpt><trkpt lat="37.857163895608295" lon="13.802194242372341"><ele>609.0</ele><time>2026-04-17T16:12:58Z</time></trkpt><trkpt lat="37.85718706275033" lon="13.802097914878035"><ele>608.6666666666666</ele><time>2026-04-17T16:13:01Z</time></trkpt><trkpt lat="37.857213903624036" lon="13.802000264088127"><ele>608.3333333333333</ele><time>2026-04-17T16:13:05Z</time></trkpt><trkpt lat="37.85725078163174" lon="13.801890625688266"><ele>608.0</ele><time>2026-04-17T16:13:09Z</time></trkpt><trkpt lat="37.85728405911107" lon="13.801822281156843"><ele>607.0</ele><time>2026-04-17T16:13:12Z</time></trkpt><trkpt lat="37.8572783837026" lon="13.801716595810063"><ele>606.0</ele><time>2026-04-17T16:13:15Z</time></trkpt><trkpt lat="37.85730308137327" lon="13.80160402941111"><ele>605.0</ele><time>2026-04-17T16:13:21Z</time></trkpt><trkpt lat="37.85731134762449" lon="13.801496280876217"><ele>604.0</ele><time>2026-04-17T16:13:25Z</time></trkpt><trkpt lat="37.85734385610834" lon="13.801391495544104"><ele>603.0</ele><time>2026-04-17T16:13:28Z</time></trkpt><trkpt lat="37.85736140243913" lon="13.80128787751892"><ele>602.0</ele><time>2026-04-17T16:13:30Z</time></trkpt><trkpt lat="37.85739095750762" lon="13.801185600024775"><ele>602.0</ele><time>2026-04-17T16:13:33Z</time></trkpt><trkpt lat="37.857413235518315" lon="13.80108317635677"><ele>602.0</ele><time>2026-04-17T16:13:35.999Z</time></trkpt><trkpt lat="37.85743210725197" lon="13.801002949048112"><ele>602.0</ele><time>2026-04-17T16:13:37.999Z</time></trkpt><trkpt lat="37.8574535063274" lon="13.800901699690037"><ele>602.0</ele><time>2026-04-17T16:13:40.999Z</time></trkpt><trkpt lat="37.85747313497907" lon="13.800819505116769"><ele>602.0</ele><time>2026-04-17T16:13:43.999Z</time></trkpt><trkpt lat="37.85749274966361" lon="13.80073538928115"><ele>602.0</ele><time>2026-04-17T16:13:46.999Z</time></trkpt><trkpt lat="37.857516179650254" lon="13.800628938050997"><ele>600.7142857142857</ele><time>2026-04-17T16:13:49.999Z</time></trkpt><trkpt lat="37.85753991092188" lon="13.800550443258539"><ele>599.4285714285714</ele><time>2026-04-17T16:13:53.999Z</time></trkpt><trkpt lat="37.85757034965616" lon="13.800471064706619"><ele>598.1428571428571</ele><time>2026-04-17T16:13:56.999Z</time></trkpt><trkpt lat="37.85760638147889" lon="13.800397551674255"><ele>596.8571428571429</ele><time>2026-04-17T16:14:00.999Z</time></trkpt><trkpt lat="37.8576615472977" lon="13.800304838341384"><ele>595.5714285714286</ele><time>2026-04-17T16:14:04.999Z</time></trkpt><trkpt lat="37.85769964666868" lon="13.800237528336432"><ele>594.2857142857142</ele><time>2026-04-17T16:14:08.999Z</time></trkpt><trkpt lat="37.85764909492743" lon="13.800166212387786"><ele>593.0</ele><time>2026-04-17T16:14:13.999Z</time></trkpt><trkpt lat="37.857567726415695" lon="13.800161327291987"><ele>591.1666666666666</ele><time>2026-04-17T16:14:17.999Z</time></trkpt><trkpt lat="37.85749956131308" lon="13.800158390871186"><ele>589.3333333333333</ele><time>2026-04-17T16:14:20.999Z</time></trkpt><trkpt lat="37.85742491323368" lon="13.800165922157188"><ele>587.5</ele><time>2026-04-17T16:14:23.999Z</time></trkpt><trkpt lat="37.85735639364993" lon="13.800118350781094"><ele>585.6666666666666</ele><time>2026-04-17T16:14:27.999Z</time></trkpt><trkpt lat="37.85730229815453" lon="13.800040458337191"><ele>583.8333333333334</ele><time>2026-04-17T16:14:30.999Z</time></trkpt><trkpt lat="37.85726425914202" lon="13.799948850043148"><ele>582.0</ele><time>2026-04-17T16:14:33.999Z</time></trkpt><trkpt lat="37.85720942425543" lon="13.799856055455916"><ele>582.0</ele><time>2026-04-17T16:14:38Z</time></trkpt><trkpt lat="37.85715753848485" lon="13.799772075160107"><ele>582.0</ele><time>2026-04-17T16:14:42Z</time></trkpt><trkpt lat="37.85711607239038" lon="13.799703548981157"><ele>582.0</ele><time>2026-04-17T16:14:44Z</time></trkpt><trkpt lat="37.85709269290673" lon="13.799602973693121"><ele>582.0</ele><time>2026-04-17T16:14:47Z</time></trkpt><trkpt lat="37.85710557763588" lon="13.799509167153003"><ele>582.0</ele><time>2026-04-17T16:14:51Z</time></trkpt><trkpt lat="37.857143275636375" lon="13.799380823043673"><ele>582.0</ele><time>2026-04-17T16:14:55Z</time></trkpt><trkpt lat="37.85711552782119" lon="13.799271777724291"><ele>580.3333333333334</ele><time>2026-04-17T16:14:57Z</time></trkpt><trkpt lat="37.85708321359761" lon="13.799200121767381"><ele>578.6666666666666</ele><time>2026-04-17T16:14:59Z</time></trkpt><trkpt lat="37.857042577129945" lon="13.7991183479543"><ele>577.0</ele><time>2026-04-17T16:15:01Z</time></trkpt><trkpt lat="37.85700286643536" lon="13.79903077301472"><ele>575.3333333333333</ele><time>2026-04-17T16:15:03Z</time></trkpt><trkpt lat="37.85695553264171" lon="13.798950044198827"><ele>573.6666666666666</ele><time>2026-04-17T16:15:05Z</time></trkpt><trkpt lat="37.85690892206963" lon="13.798843739634806"><ele>572.0</ele><time>2026-04-17T16:15:07Z</time></trkpt><trkpt lat="37.85686363094152" lon="13.798744725751169"><ele>572.0</ele><time>2026-04-17T16:15:09Z</time></trkpt><trkpt lat="37.856843883429555" lon="13.798632961589988"><ele>572.0</ele><time>2026-04-17T16:15:11Z</time></trkpt><trkpt lat="37.85677212335207" lon="13.798572653596707"><ele>572.0</ele><time>2026-04-17T16:15:13Z</time></trkpt><trkpt lat="37.85672568843247" lon="13.798508310595142"><ele>572.0</ele><time>2026-04-17T16:15:15Z</time></trkpt><trkpt lat="37.85671691551057" lon="13.798427495073167"><ele>572.0</ele><time>2026-04-17T16:15:16Z</time></trkpt><trkpt lat="37.856676169662315" lon="13.798297113690563"><ele>572.0</ele><time>2026-04-17T16:15:18Z</time></trkpt><trkpt lat="37.85663195672364" lon="13.798180060900291"><ele>572.1666666666666</ele><time>2026-04-17T16:15:20Z</time></trkpt><trkpt lat="37.856579055365835" lon="13.798081694196247"><ele>572.3333333333333</ele><time>2026-04-17T16:15:22Z</time></trkpt><trkpt lat="37.856575849412245" lon="13.797992139382675"><ele>572.5</ele><time>2026-04-17T16:15:23Z</time></trkpt><trkpt lat="37.85652968483137" lon="13.79793083876007"><ele>572.6666666666666</ele><time>2026-04-17T16:15:24Z</time></trkpt><trkpt lat="37.856459481875646" lon="13.797845933306837"><ele>572.8333333333334</ele><time>2026-04-17T16:15:25Z</time></trkpt><trkpt lat="37.85638216142998" lon="13.797748541762509"><ele>573.0</ele><time>2026-04-17T16:15:26Z</time></trkpt><trkpt lat="37.85631711155292" lon="13.797668329164086"><ele>572.6</ele><time>2026-04-17T16:15:27Z</time></trkpt><trkpt lat="37.85624958062023" lon="13.797594341454959"><ele>572.1999999999999</ele><time>2026-04-17T16:15:28Z</time></trkpt><trkpt lat="37.85616656824382" lon="13.797522388734295"><ele>571.8</ele><time>2026-04-17T16:15:29Z</time></trkpt><trkpt lat="37.85608520359202" lon="13.797464561221922"><ele>571.4</ele><time>2026-04-17T16:15:29.999Z</time></trkpt><trkpt lat="37.856011569377706" lon="13.797423468941483"><ele>571.0</ele><time>2026-04-17T16:15:30.999Z</time></trkpt><trkpt lat="37.855924509182735" lon="13.79737806403611"><ele>571.0</ele><time>2026-04-17T16:15:31.999Z</time></trkpt><trkpt lat="37.855823068634805" lon="13.79732351805497"><ele>571.0</ele><time>2026-04-17T16:15:32.999Z</time></trkpt><trkpt lat="37.85574359512086" lon="13.797266648468845"><ele>571.0</ele><time>2026-04-17T16:15:33.999Z</time></trkpt><trkpt lat="37.855684848961424" lon="13.797190262199148"><ele>571.0</ele><time>2026-04-17T16:15:34.999Z</time></trkpt><trkpt lat="37.85561147574012" lon="13.797081100073454"><ele>571.0</ele><time>2026-04-17T16:15:36.999Z</time></trkpt><trkpt lat="37.85555337104794" lon="13.796758526962046"><ele>569.2</ele><time>2026-04-17T16:15:46.999Z</time></trkpt><trkpt lat="37.855542270371274" lon="13.79657466811043"><ele>567.4000000000001</ele><time>2026-04-17T16:15:48.999Z</time></trkpt><trkpt lat="37.85552319964472" lon="13.796470340417343"><ele>565.6</ele><time>2026-04-17T16:15:49.999Z</time></trkpt><trkpt lat="37.855531114650034" lon="13.796368326435532"><ele>563.8000000000001</ele><time>2026-04-17T16:15:50.999Z</time></trkpt><trkpt lat="37.85552608897326" lon="13.796256558837907"><ele>562.0</ele><time>2026-04-17T16:15:51.999Z</time></trkpt><trkpt lat="37.85552023671368" lon="13.796152074514865"><ele>562.0</ele><time>2026-04-17T16:15:52.999Z</time></trkpt><trkpt lat="37.85550300852955" lon="13.796027037392076"><ele>562.0</ele><time>2026-04-17T16:15:53.999Z</time></trkpt><trkpt lat="37.85548637554605" lon="13.79588346978992"><ele>562.0</ele><time>2026-04-17T16:15:54.999Z</time></trkpt><trkpt lat="37.855478125799635" lon="13.795741069327647"><ele>562.0</ele><time>2026-04-17T16:15:55.999Z</time></trkpt><trkpt lat="37.85544938897963" lon="13.795598466956621"><ele>562.0</ele><time>2026-04-17T16:15:56.999Z</time></trkpt><trkpt lat="37.8554298943659" lon="13.795457891614726"><ele>561.4</ele><time>2026-04-17T16:15:57.999Z</time></trkpt><trkpt lat="37.85542180951849" lon="13.795323343139277"><ele>560.8000000000001</ele><time>2026-04-17T16:15:58.999Z</time></trkpt><trkpt lat="37.855418643063274" lon="13.795182801629498"><ele>560.2</ele><time>2026-04-17T16:15:59.999Z</time></trkpt><trkpt lat="37.85542322969299" lon="13.795043453725237"><ele>559.6</ele><time>2026-04-17T16:16:00.999Z</time></trkpt><trkpt lat="37.855430213432214" lon="13.79490948500249"><ele>559.0</ele><time>2026-04-17T16:16:01.999Z</time></trkpt><trkpt lat="37.85543562702628" lon="13.794762974942119"><ele>558.6</ele><time>2026-04-17T16:16:02.999Z</time></trkpt><trkpt lat="37.85544195951143" lon="13.79461395187428"><ele>558.2</ele><time>2026-04-17T16:16:03.999Z</time></trkpt><trkpt lat="37.85545550096363" lon="13.794482605182619"><ele>557.8000000000001</ele><time>2026-04-17T16:16:04.999Z</time></trkpt><trkpt lat="37.85548056430029" lon="13.794372597505618"><ele>557.4</ele><time>2026-04-17T16:16:05.999Z</time></trkpt><trkpt lat="37.85553271757417" lon="13.794263681761112"><ele>557.0</ele><time>2026-04-17T16:16:06.999Z</time></trkpt><trkpt lat="37.855625229067385" lon="13.794180423714165"><ele>558.8000000000001</ele><time>2026-04-17T16:16:07.999Z</time></trkpt><trkpt lat="37.855690950909406" lon="13.794072612867039"><ele>560.6</ele><time>2026-04-17T16:16:08.999Z</time></trkpt><trkpt lat="37.85576149787295" lon="13.793967141822124"><ele>562.4000000000001</ele><time>2026-04-17T16:16:09.999Z</time></trkpt><trkpt lat="37.85578957920662" lon="13.79385948694324"><ele>564.2</ele><time>2026-04-17T16:16:10.999Z</time></trkpt><trkpt lat="37.855798655444474" lon="13.793735048568454"><ele>566.0</ele><time>2026-04-17T16:16:11.999Z</time></trkpt><trkpt lat="37.85582245387174" lon="13.79358376222721"><ele>567.25</ele><time>2026-04-17T16:16:12.999Z</time></trkpt><trkpt lat="37.85584825754069" lon="13.79342300470446"><ele>568.5</ele><time>2026-04-17T16:16:13.999Z</time></trkpt><trkpt lat="37.855876752912614" lon="13.793250354974997"><ele>569.75</ele><time>2026-04-17T16:16:14.999Z</time></trkpt><trkpt lat="37.855917322619675" lon="13.793082583721697"><ele>571.0</ele><time>2026-04-17T16:16:15.999Z</time></trkpt><trkpt lat="37.85596324143173" lon="13.792922524915909"><ele>566.6</ele><time>2026-04-17T16:16:16.999Z</time></trkpt><trkpt lat="37.856014052864495" lon="13.792777293464965"><ele>562.2</ele><time>2026-04-17T16:16:17.999Z</time></trkpt><trkpt lat="37.85605795401268" lon="13.792646322055623"><ele>557.8</ele><time>2026-04-17T16:16:18.999Z</time></trkpt><trkpt lat="37.85609554111476" lon="13.792538065174096"><ele>553.4</ele><time>2026-04-17T16:16:19.999Z</time></trkpt><trkpt lat="37.856131575339205" lon="13.792437708161302"><ele>549.0</ele><time>2026-04-17T16:16:20.999Z</time></trkpt><trkpt lat="37.85617400048304" lon="13.79232471477057"><ele>549.0</ele><time>2026-04-17T16:16:21.999Z</time></trkpt><trkpt lat="37.85622608132033" lon="13.792199115040674"><ele>549.0</ele><time>2026-04-17T16:16:22.999Z</time></trkpt><trkpt lat="37.85628430027635" lon="13.79206213792354"><ele>549.0</ele><time>2026-04-17T16:16:23.999Z</time></trkpt><trkpt lat="37.856335426496415" lon="13.791916678133074"><ele>549.0</ele><time>2026-04-17T16:16:24.999Z</time></trkpt><trkpt lat="37.85635928095295" lon="13.791754869581958"><ele>551.0</ele><time>2026-04-17T16:16:25.999Z</time></trkpt><trkpt lat="37.85634683891672" lon="13.791585384543877"><ele>553.0</ele><time>2026-04-17T16:16:26.999Z</time></trkpt><trkpt lat="37.8563251002034" lon="13.791431097645772"><ele>555.0</ele><time>2026-04-17T16:16:27.999Z</time></trkpt><trkpt lat="37.85628804889432" lon="13.791283963133603"><ele>557.0</ele><time>2026-04-17T16:16:28.999Z</time></trkpt><trkpt lat="37.856266456307175" lon="13.791147623627056"><ele>557.0</ele><time>2026-04-17T16:16:29.999Z</time></trkpt><trkpt lat="37.856260939242496" lon="13.790998497831902"><ele>557.0</ele><time>2026-04-17T16:16:30.999Z</time></trkpt><trkpt lat="37.85627606533165" lon="13.79084678109863"><ele>557.0</ele><time>2026-04-17T16:16:31.999Z</time></trkpt><trkpt lat="37.85628562144662" lon="13.790700811581235"><ele>557.0</ele><time>2026-04-17T16:16:32.999Z</time></trkpt><trkpt lat="37.85629955310303" lon="13.790563127693233"><ele>557.0</ele><time>2026-04-17T16:16:33.999Z</time></trkpt><trkpt lat="37.856312124432996" lon="13.790445096335"><ele>557.0</ele><time>2026-04-17T16:16:34.999Z</time></trkpt><trkpt lat="37.856351461832226" lon="13.790319403943663"><ele>557.0</ele><time>2026-04-17T16:16:35.998Z</time></trkpt><trkpt lat="37.85642015945387" lon="13.790227942084137"><ele>557.0</ele><time>2026-04-17T16:16:36.998Z</time></trkpt><trkpt lat="37.856513724545806" lon="13.790137672041734"><ele>557.0</ele><time>2026-04-17T16:16:37.998Z</time></trkpt><trkpt lat="37.85659670558618" lon="13.790057590184437"><ele>558.6666666666666</ele><time>2026-04-17T16:16:38.998Z</time></trkpt><trkpt lat="37.856669324364134" lon="13.789974300919212"><ele>560.3333333333333</ele><time>2026-04-17T16:16:39.998Z</time></trkpt><trkpt lat="37.85674683028519" lon="13.789901035506439"><ele>562.0</ele><time>2026-04-17T16:16:40.998Z</time></trkpt><trkpt lat="37.8568095869195" lon="13.789829374497062"><ele>563.6666666666666</ele><time>2026-04-17T16:16:41.998Z</time></trkpt><trkpt lat="37.856870274828836" lon="13.789759777945203"><ele>565.3333333333334</ele><time>2026-04-17T16:16:43Z</time></trkpt><trkpt lat="37.85692518690966" lon="13.789690311274311"><ele>567.0</ele><time>2026-04-17T16:16:44Z</time></trkpt><trkpt lat="37.85698089949784" lon="13.789631003046816"><ele>565.0</ele><time>2026-04-17T16:16:45Z</time></trkpt><trkpt lat="37.85702620112742" lon="13.789568323726277"><ele>563.0</ele><time>2026-04-17T16:16:46Z</time></trkpt><trkpt lat="37.85705422264509" lon="13.789473345774104"><ele>561.0</ele><time>2026-04-17T16:16:47Z</time></trkpt><trkpt lat="37.8570595697413" lon="13.789366641203054"><ele>559.0</ele><time>2026-04-17T16:16:48Z</time></trkpt><trkpt lat="37.85704419901976" lon="13.789251874189603"><ele>557.0</ele><time>2026-04-17T16:16:49Z</time></trkpt><trkpt lat="37.85701931121346" lon="13.789129812246715"><ele>555.0</ele><time>2026-04-17T16:16:50Z</time></trkpt><trkpt lat="37.85700046240444" lon="13.78900893846876"><ele>555.0</ele><time>2026-04-17T16:16:51Z</time></trkpt><trkpt lat="37.85698671817434" lon="13.788892452592151"><ele>555.0</ele><time>2026-04-17T16:16:52Z</time></trkpt><trkpt lat="37.856970852806164" lon="13.788786384175983"><ele>555.0</ele><time>2026-04-17T16:16:53Z</time></trkpt><trkpt lat="37.85695214879914" lon="13.788670313964143"><ele>555.0</ele><time>2026-04-17T16:16:54Z</time></trkpt><trkpt lat="37.85693475575264" lon="13.788554418022565"><ele>555.0</ele><time>2026-04-17T16:16:55Z</time></trkpt><trkpt lat="37.85691945154946" lon="13.788443700140887"><ele>555.0</ele><time>2026-04-17T16:16:56Z</time></trkpt><trkpt lat="37.8569149932968" lon="13.7883396537589"><ele>555.0</ele><time>2026-04-17T16:16:57Z</time></trkpt><trkpt lat="37.85691493257255" lon="13.78822710665317"><ele>555.0</ele><time>2026-04-17T16:16:58Z</time></trkpt><trkpt lat="37.85694111190834" lon="13.788117210182515"><ele>555.0</ele><time>2026-04-17T16:16:59Z</time></trkpt><trkpt lat="37.85695585593367" lon="13.78799308995998"><ele>555.0</ele><time>2026-04-17T16:17:00Z</time></trkpt><trkpt lat="37.856971628290296" lon="13.787860312676811"><ele>555.0</ele><time>2026-04-17T16:17:01Z</time></trkpt><trkpt lat="37.85698598929155" lon="13.787719710718125"><ele>555.0</ele><time>2026-04-17T16:17:02Z</time></trkpt><trkpt lat="37.85699898594998" lon="13.787584112232272"><ele>555.0</ele><time>2026-04-17T16:17:03Z</time></trkpt><trkpt lat="37.85699593888144" lon="13.787449511449456"><ele>555.0</ele><time>2026-04-17T16:17:04Z</time></trkpt><trkpt lat="37.8570156092865" lon="13.78732693440987"><ele>555.0</ele><time>2026-04-17T16:17:05Z</time></trkpt><trkpt lat="37.857030436089346" lon="13.787217909828597"><ele>555.8333333333334</ele><time>2026-04-17T16:17:06Z</time></trkpt><trkpt lat="37.85704481303173" lon="13.78711674629652"><ele>556.6666666666666</ele><time>2026-04-17T16:17:07Z</time></trkpt><trkpt lat="37.85706247234078" lon="13.78702021677052"><ele>557.5</ele><time>2026-04-17T16:17:08Z</time></trkpt><trkpt lat="37.857082707417376" lon="13.78692555403077"><ele>558.3333333333333</ele><time>2026-04-17T16:17:09Z</time></trkpt><trkpt lat="37.857090881245405" lon="13.786846418877264"><ele>559.1666666666666</ele><time>2026-04-17T16:17:10Z</time></trkpt><trkpt lat="37.85710741436154" lon="13.786758290082764"><ele>560.0</ele><time>2026-04-17T16:17:11Z</time></trkpt><trkpt lat="37.85714328987575" lon="13.78663882343355"><ele>560.5</ele><time>2026-04-17T16:17:13Z</time></trkpt><trkpt lat="37.85715798889316" lon="13.786558537714708"><ele>561.0</ele><time>2026-04-17T16:17:15Z</time></trkpt><trkpt lat="37.85716469744669" lon="13.786443546287893"><ele>561.5</ele><time>2026-04-17T16:17:17Z</time></trkpt><trkpt lat="37.857191242707955" lon="13.78636589726401"><ele>562.0</ele><time>2026-04-17T16:17:18Z</time></trkpt><trkpt lat="37.85721734073757" lon="13.786249614797473"><ele>562.5</ele><time>2026-04-17T16:17:20Z</time></trkpt><trkpt lat="37.857232950686345" lon="13.786166995172373"><ele>563.0</ele><time>2026-04-17T16:17:57.999Z</time></trkpt><trkpt lat="37.85689938903654" lon="13.78610942341369"><ele>563.0</ele><time>2026-04-17T16:18:53Z</time></trkpt><trkpt lat="37.856824084732935" lon="13.786100386010114"><ele>563.0</ele><time>2026-04-17T16:18:55Z</time></trkpt><trkpt lat="37.856749115574445" lon="13.786093370351821"><ele>563.0</ele><time>2026-04-17T16:18:57Z</time></trkpt><trkpt lat="37.85667678056843" lon="13.786086032593994"><ele>563.0</ele><time>2026-04-17T16:18:59Z</time></trkpt><trkpt lat="37.85661355710154" lon="13.786076763753488"><ele>563.0</ele><time>2026-04-17T16:19:01Z</time></trkpt><trkpt lat="37.856528961279174" lon="13.786061668472612"><ele>563.0</ele><time>2026-04-17T16:19:04Z</time></trkpt><trkpt lat="37.85659282637213" lon="13.786092360523982"><ele>563.0</ele><time>2026-04-17T16:37:02.999Z</time></trkpt><trkpt lat="37.85668997987583" lon="13.786065619129982"><ele>563.0</ele><time>2026-04-17T16:37:12.999Z</time></trkpt><trkpt lat="37.85683004953934" lon="13.786092041504807"><ele>563.0</ele><time>2026-04-17T16:37:19.999Z</time></trkpt><trkpt lat="37.85689659156419" lon="13.786098134037676"><ele>563.0</ele><time>2026-04-17T16:37:21.998Z</time></trkpt><trkpt lat="37.856972174349785" lon="13.786111068064814"><ele>563.0</ele><time>2026-04-17T16:37:24.998Z</time></trkpt><trkpt lat="37.857039225492485" lon="13.78611994662015"><ele>563.0</ele><time>2026-04-17T16:37:27.998Z</time></trkpt><trkpt lat="37.85713064846172" lon="13.786117185876682"><ele>563.0</ele><time>2026-04-17T16:37:31.998Z</time></trkpt><trkpt lat="37.857195751340996" lon="13.786142220241231"><ele>563.0</ele><time>2026-04-17T16:37:51Z</time></trkpt><trkpt lat="37.85723384899867" lon="13.786070787925919"><ele>563.0</ele><time>2026-04-17T16:38:24.999Z</time></trkpt><trkpt lat="37.85723432782841" lon="13.785953625460074"><ele>563.0</ele><time>2026-04-17T16:38:27.999Z</time></trkpt><trkpt lat="37.85726613104647" lon="13.785845287368247"><ele>563.0</ele><time>2026-04-17T16:38:29.999Z</time></trkpt><trkpt lat="37.8573114484246" lon="13.785714985330811"><ele>563.0</ele><time>2026-04-17T16:38:31.999Z</time></trkpt><trkpt lat="37.85736236027365" lon="13.785576056025302"><ele>563.4285714285714</ele><time>2026-04-17T16:38:33.999Z</time></trkpt><trkpt lat="37.85738146771289" lon="13.785490474362947"><ele>563.8571428571429</ele><time>2026-04-17T16:38:34.999Z</time></trkpt><trkpt lat="37.85740120258422" lon="13.785402082468908"><ele>564.2857142857143</ele><time>2026-04-17T16:38:35.999Z</time></trkpt><trkpt lat="37.85742020353082" lon="13.785312631981775"><ele>564.7142857142858</ele><time>2026-04-17T16:38:36.999Z</time></trkpt><trkpt lat="37.85743882211122" lon="13.785220834657627"><ele>565.1428571428572</ele><time>2026-04-17T16:38:37.999Z</time></trkpt><trkpt lat="37.85745516998225" lon="13.785124785954178"><ele>565.5714285714286</ele><time>2026-04-17T16:38:38.999Z</time></trkpt><trkpt lat="37.85746674168115" lon="13.78504014264594"><ele>566.0</ele><time>2026-04-17T16:38:39.999Z</time></trkpt><trkpt lat="37.8574638102954" lon="13.784950290271919"><ele>566.1666666666666</ele><time>2026-04-17T16:38:40.999Z</time></trkpt><trkpt lat="37.857474674507905" lon="13.78486592006978"><ele>566.3333333333333</ele><time>2026-04-17T16:38:41.999Z</time></trkpt><trkpt lat="37.857487849519465" lon="13.784777958343167"><ele>566.5</ele><time>2026-04-17T16:38:42.999Z</time></trkpt><trkpt lat="37.857502407569186" lon="13.784695816330501"><ele>566.6666666666666</ele><time>2026-04-17T16:38:43.999Z</time></trkpt><trkpt lat="37.85749956700723" lon="13.784612966752494"><ele>566.8333333333334</ele><time>2026-04-17T16:38:44.999Z</time></trkpt><trkpt lat="37.85760027606621" lon="13.784478691960336"><ele>567.0</ele><time>2026-04-17T16:38:46.999Z</time></trkpt><trkpt lat="37.85767428170801" lon="13.784435911080564"><ele>567.0</ele><time>2026-04-17T16:38:47.999Z</time></trkpt><trkpt lat="37.85773014616692" lon="13.784385066133483"><ele>567.0</ele><time>2026-04-17T16:38:48.999Z</time></trkpt><trkpt lat="37.857789728203244" lon="13.78433006500098"><ele>567.0</ele><time>2026-04-17T16:38:49.999Z</time></trkpt><trkpt lat="37.85784747411477" lon="13.784275224176827"><ele>567.0</ele><time>2026-04-17T16:38:50.999Z</time></trkpt><trkpt lat="37.85789370717822" lon="13.784202511820897"><ele>567.0</ele><time>2026-04-17T16:38:51.999Z</time></trkpt><trkpt lat="37.85795237197512" lon="13.78414875595969"><ele>567.0</ele><time>2026-04-17T16:38:52.999Z</time></trkpt><trkpt lat="37.85801066365783" lon="13.784085003934615"><ele>567.0</ele><time>2026-04-17T16:38:53.999Z</time></trkpt><trkpt lat="37.85807468062591" lon="13.784025484122749"><ele>567.3333333333334</ele><time>2026-04-17T16:38:54.999Z</time></trkpt><trkpt lat="37.8581440074452" lon="13.78396755858862"><ele>567.6666666666666</ele><time>2026-04-17T16:38:55.999Z</time></trkpt><trkpt lat="37.85821085439603" lon="13.7839029856687"><ele>568.0</ele><time>2026-04-17T16:38:56.999Z</time></trkpt><trkpt lat="37.85827938534923" lon="13.783838828014863"><ele>568.3333333333333</ele><time>2026-04-17T16:38:57.999Z</time></trkpt><trkpt lat="37.85835842170438" lon="13.783802848553488"><ele>568.6666666666666</ele><time>2026-04-17T16:38:58.999Z</time></trkpt><trkpt lat="37.858430769014014" lon="13.783759332758855"><ele>569.0</ele><time>2026-04-17T16:38:59.999Z</time></trkpt><trkpt lat="37.85850404705187" lon="13.783723780104902"><ele>566.6666666666666</ele><time>2026-04-17T16:39:00.999Z</time></trkpt><trkpt lat="37.85857896201102" lon="13.783694751015839"><ele>564.3333333333333</ele><time>2026-04-17T16:39:01.999Z</time></trkpt><trkpt lat="37.858653073073135" lon="13.783672433732939"><ele>562.0</ele><time>2026-04-17T16:39:02.999Z</time></trkpt><trkpt lat="37.85872761878321" lon="13.783657548209039"><ele>559.6666666666666</ele><time>2026-04-17T16:39:03.999Z</time></trkpt><trkpt lat="37.85879681808039" lon="13.78365387452719"><ele>557.3333333333334</ele><time>2026-04-17T16:39:04.999Z</time></trkpt><trkpt lat="37.85886284976639" lon="13.783662643424526"><ele>555.0</ele><time>2026-04-17T16:39:05.999Z</time></trkpt><trkpt lat="37.85897854667357" lon="13.783724577068071"><ele>555.0</ele><time>2026-04-17T16:39:07.999Z</time></trkpt><trkpt lat="37.85902147960783" lon="13.783786721535012"><ele>555.0</ele><time>2026-04-17T16:39:08.999Z</time></trkpt><trkpt lat="37.8590565691837" lon="13.783853850928843"><ele>555.0</ele><time>2026-04-17T16:39:09.999Z</time></trkpt><trkpt lat="37.85908448766366" lon="13.784002382695158"><ele>555.0</ele><time>2026-04-17T16:39:11.999Z</time></trkpt><trkpt lat="37.85905582821812" lon="13.784144295423602"><ele>555.0</ele><time>2026-04-17T16:39:13.999Z</time></trkpt><trkpt lat="37.85900083480039" lon="13.784285120678708"><ele>553.6</ele><time>2026-04-17T16:39:15.999Z</time></trkpt><trkpt lat="37.85895234315603" lon="13.784424794542467"><ele>552.2</ele><time>2026-04-17T16:39:17.999Z</time></trkpt><trkpt lat="37.85896380126564" lon="13.784558600985445"><ele>550.8</ele><time>2026-04-17T16:39:19.999Z</time></trkpt><trkpt lat="37.859000761732204" lon="13.78467963826728"><ele>549.4</ele><time>2026-04-17T16:39:21.999Z</time></trkpt><trkpt lat="37.85908965964374" lon="13.784757685016636"><ele>548.0</ele><time>2026-04-17T16:39:23.999Z</time></trkpt><trkpt lat="37.859216272500355" lon="13.784756375817654"><ele>548.0</ele><time>2026-04-17T16:39:25.998Z</time></trkpt><trkpt lat="37.859280410783384" lon="13.784723348905628"><ele>548.0</ele><time>2026-04-17T16:39:26.998Z</time></trkpt><trkpt lat="37.8593454690908" lon="13.784678476573244"><ele>548.0</ele><time>2026-04-17T16:39:27.998Z</time></trkpt><trkpt lat="37.85940604460513" lon="13.78461688081468"><ele>548.0</ele><time>2026-04-17T16:39:28.998Z</time></trkpt><trkpt lat="37.85945396849748" lon="13.7845320972188"><ele>548.0</ele><time>2026-04-17T16:39:29.998Z</time></trkpt><trkpt lat="37.85952011930548" lon="13.784475210535485"><ele>548.0</ele><time>2026-04-17T16:39:30.998Z</time></trkpt><trkpt lat="37.85956555096106" lon="13.784383583530344"><ele>545.1666666666666</ele><time>2026-04-17T16:39:31.998Z</time></trkpt><trkpt lat="37.859601689542735" lon="13.784285748362015"><ele>542.3333333333333</ele><time>2026-04-17T16:39:32.998Z</time></trkpt><trkpt lat="37.85962031200305" lon="13.784178233279123"><ele>539.5</ele><time>2026-04-17T16:39:33.998Z</time></trkpt><trkpt lat="37.85965908521805" lon="13.784083529415623"><ele>536.6666666666666</ele><time>2026-04-17T16:39:34.998Z</time></trkpt><trkpt lat="37.85969142492293" lon="13.78398577635162"><ele>533.8333333333334</ele><time>2026-04-17T16:39:35.998Z</time></trkpt><trkpt lat="37.85972505040187" lon="13.783889602178563"><ele>531.0</ele><time>2026-04-17T16:39:36.998Z</time></trkpt><trkpt lat="37.85977720920072" lon="13.783807717160377"><ele>531.0</ele><time>2026-04-17T16:39:37.998Z</time></trkpt><trkpt lat="37.85981996922756" lon="13.783718301961992"><ele>531.0</ele><time>2026-04-17T16:39:38.998Z</time></trkpt><trkpt lat="37.85986315215845" lon="13.783630608830329"><ele>531.0</ele><time>2026-04-17T16:39:39.998Z</time></trkpt><trkpt lat="37.859892861075934" lon="13.78353395536684"><ele>531.0</ele><time>2026-04-17T16:39:40.998Z</time></trkpt><trkpt lat="37.8599425051233" lon="13.783450442539582"><ele>531.0</ele><time>2026-04-17T16:39:41.998Z</time></trkpt><trkpt lat="37.85999617021584" lon="13.783368669523025"><ele>531.0</ele><time>2026-04-17T16:39:42.998Z</time></trkpt><trkpt lat="37.86005041823879" lon="13.783285549496362"><ele>531.3333333333334</ele><time>2026-04-17T16:39:43.998Z</time></trkpt><trkpt lat="37.860101704898284" lon="13.783204133695419"><ele>531.6666666666666</ele><time>2026-04-17T16:39:44.998Z</time></trkpt><trkpt lat="37.86015322734189" lon="13.783121927436143"><ele>532.0</ele><time>2026-04-17T16:39:45.998Z</time></trkpt><trkpt lat="37.86021056715802" lon="13.783046363277132"><ele>532.3333333333333</ele><time>2026-04-17T16:39:46.998Z</time></trkpt><trkpt lat="37.86026109722401" lon="13.782960758933038"><ele>532.6666666666666</ele><time>2026-04-17T16:39:47.998Z</time></trkpt><trkpt lat="37.860313365461224" lon="13.782876668329132"><ele>533.0</ele><time>2026-04-17T16:39:49Z</time></trkpt><trkpt lat="37.86036189388475" lon="13.78279785221363"><ele>530.1666666666666</ele><time>2026-04-17T16:39:50Z</time></trkpt><trkpt lat="37.86041242795574" lon="13.782724928169188"><ele>527.3333333333333</ele><time>2026-04-17T16:39:51Z</time></trkpt><trkpt lat="37.86046815477538" lon="13.78265883797467"><ele>524.5</ele><time>2026-04-17T16:39:52Z</time></trkpt><trkpt lat="37.86053243746987" lon="13.782605664393547"><ele>521.6666666666666</ele><time>2026-04-17T16:39:53Z</time></trkpt><trkpt lat="37.860601936758115" lon="13.782569530280679"><ele>518.8333333333334</ele><time>2026-04-17T16:39:54Z</time></trkpt><trkpt lat="37.86067282499645" lon="13.782549879016761"><ele>516.0</ele><time>2026-04-17T16:39:55Z</time></trkpt><trkpt lat="37.860746874023654" lon="13.782567210129452"><ele>515.8333333333334</ele><time>2026-04-17T16:39:56Z</time></trkpt><trkpt lat="37.86082109633402" lon="13.782550632598229"><ele>515.6666666666666</ele><time>2026-04-17T16:39:57Z</time></trkpt><trkpt lat="37.86089991584218" lon="13.782559494842076"><ele>515.5</ele><time>2026-04-17T16:39:58Z</time></trkpt><trkpt lat="37.86098041562563" lon="13.782569992517503"><ele>515.3333333333333</ele><time>2026-04-17T16:39:59Z</time></trkpt><trkpt lat="37.86106031880973" lon="13.782581020516348"><ele>515.1666666666666</ele><time>2026-04-17T16:40:00Z</time></trkpt><trkpt lat="37.8611390720607" lon="13.782601268464333"><ele>515.0</ele><time>2026-04-17T16:40:01Z</time></trkpt><trkpt lat="37.86121112361182" lon="13.782634724690844"><ele>513.0</ele><time>2026-04-17T16:40:02Z</time></trkpt><trkpt lat="37.86127417554833" lon="13.782686002370147"><ele>511.0</ele><time>2026-04-17T16:40:03Z</time></trkpt><trkpt lat="37.86132843681666" lon="13.782753057688216"><ele>509.0</ele><time>2026-04-17T16:40:04Z</time></trkpt><trkpt lat="37.86137294779828" lon="13.78282678000986"><ele>507.0</ele><time>2026-04-17T16:40:05Z</time></trkpt><trkpt lat="37.861412725490844" lon="13.782899035157088"><ele>505.0</ele><time>2026-04-17T16:40:06Z</time></trkpt><trkpt lat="37.861448936621386" lon="13.782981265035653"><ele>503.0</ele><time>2026-04-17T16:40:07Z</time></trkpt><trkpt lat="37.861472501576486" lon="13.7830678895097"><ele>501.0</ele><time>2026-04-17T16:40:08Z</time></trkpt><trkpt lat="37.86147848503221" lon="13.7831641919951"><ele>501.0</ele><time>2026-04-17T16:40:09Z</time></trkpt><trkpt lat="37.86147476902279" lon="13.783263291240326"><ele>501.0</ele><time>2026-04-17T16:40:10Z</time></trkpt><trkpt lat="37.86146356034121" lon="13.783355949650257"><ele>501.0</ele><time>2026-04-17T16:40:11Z</time></trkpt><trkpt lat="37.86145320528102" lon="13.7834420055706"><ele>501.0</ele><time>2026-04-17T16:40:12Z</time></trkpt><trkpt lat="37.86144340004163" lon="13.783527380337397"><ele>501.0</ele><time>2026-04-17T16:40:13Z</time></trkpt><trkpt lat="37.8614311578338" lon="13.783616181119383"><ele>501.0</ele><time>2026-04-17T16:40:14Z</time></trkpt><trkpt lat="37.8614117722887" lon="13.783707699232448"><ele>501.0</ele><time>2026-04-17T16:40:15Z</time></trkpt><trkpt lat="37.8613916984036" lon="13.783797435821342"><ele>500.28571428571433</ele><time>2026-04-17T16:40:16Z</time></trkpt><trkpt lat="37.861374826261475" lon="13.783885072222892"><ele>499.57142857142856</ele><time>2026-04-17T16:40:17Z</time></trkpt><trkpt lat="37.8613717108042" lon="13.78398046016952"><ele>498.8571428571429</ele><time>2026-04-17T16:40:18Z</time></trkpt><trkpt lat="37.861381415015416" lon="13.784073753954392"><ele>498.14285714285717</ele><time>2026-04-17T16:40:19Z</time></trkpt><trkpt lat="37.86139878628723" lon="13.784164486431324"><ele>497.42857142857144</ele><time>2026-04-17T16:40:20Z</time></trkpt><trkpt lat="37.86142506278876" lon="13.784246728642383"><ele>496.7142857142857</ele><time>2026-04-17T16:40:21Z</time></trkpt><trkpt lat="37.861462437731475" lon="13.784319913634711"><ele>496.0</ele><time>2026-04-17T16:40:22Z</time></trkpt><trkpt lat="37.861510107865605" lon="13.784374696627824"><ele>494.1666666666667</ele><time>2026-04-17T16:40:23Z</time></trkpt><trkpt lat="37.86156615093479" lon="13.78441318464589"><ele>492.33333333333337</ele><time>2026-04-17T16:40:24Z</time></trkpt><trkpt lat="37.86163845060496" lon="13.784455741969019"><ele>490.5</ele><time>2026-04-17T16:40:26Z</time></trkpt><trkpt lat="37.86174261583409" lon="13.784467562404421"><ele>488.66666666666663</ele><time>2026-04-17T16:40:28Z</time></trkpt><trkpt lat="37.86181259620115" lon="13.784466017208622"><ele>486.8333333333333</ele><time>2026-04-17T16:40:29Z</time></trkpt><trkpt lat="37.861891818721546" lon="13.784463106221066"><ele>485.0</ele><time>2026-04-17T16:40:30Z</time></trkpt><trkpt lat="37.86197431353978" lon="13.784460074993229"><ele>482.99999999999994</ele><time>2026-04-17T16:40:31Z</time></trkpt><trkpt lat="37.86205845206589" lon="13.784456983368601"><ele>481.0</ele><time>2026-04-17T16:40:32Z</time></trkpt><trkpt lat="37.86213813758084" lon="13.784449015754314"><ele>479.0</ele><time>2026-04-17T16:40:33Z</time></trkpt><trkpt lat="37.86221332704956" lon="13.784424559717376"><ele>477.0</ele><time>2026-04-17T16:40:33.999Z</time></trkpt><trkpt lat="37.86228873407207" lon="13.784427357114115"><ele>474.99999999999994</ele><time>2026-04-17T16:40:34.999Z</time></trkpt><trkpt lat="37.86236337306679" lon="13.784455633593886"><ele>473.0</ele><time>2026-04-17T16:40:35.999Z</time></trkpt><trkpt lat="37.86243932302782" lon="13.784470536627175"><ele>472.99999999999994</ele><time>2026-04-17T16:40:36.999Z</time></trkpt><trkpt lat="37.86250458987926" lon="13.78449931719418"><ele>473.0</ele><time>2026-04-17T16:40:37.999Z</time></trkpt><trkpt lat="37.862575159328934" lon="13.78452587988242"><ele>473.0</ele><time>2026-04-17T16:40:38.999Z</time></trkpt><trkpt lat="37.86265055142665" lon="13.784535722757497"><ele>473.0</ele><time>2026-04-17T16:40:39.999Z</time></trkpt><trkpt lat="37.86271739522401" lon="13.784588041567417"><ele>472.99999999999994</ele><time>2026-04-17T16:40:40.999Z</time></trkpt><trkpt lat="37.862797997579385" lon="13.784613385864187"><ele>473.0</ele><time>2026-04-17T16:40:41.999Z</time></trkpt><trkpt lat="37.86286776164458" lon="13.784655390691302"><ele>471.49999999999994</ele><time>2026-04-17T16:40:42.999Z</time></trkpt><trkpt lat="37.8629376227304" lon="13.784702618269616"><ele>470.0</ele><time>2026-04-17T16:40:43.999Z</time></trkpt><trkpt lat="37.863001763338936" lon="13.784758602466251"><ele>468.5</ele><time>2026-04-17T16:40:44.999Z</time></trkpt><trkpt lat="37.86305879193124" lon="13.78482510858909"><ele>467.0</ele><time>2026-04-17T16:40:45.999Z</time></trkpt><trkpt lat="37.8631048922143" lon="13.784904354705724"><ele>465.49999999999994</ele><time>2026-04-17T16:40:46.999Z</time></trkpt><trkpt lat="37.86313693141904" lon="13.784992394297715"><ele>464.0</ele><time>2026-04-17T16:40:47.999Z</time></trkpt><trkpt lat="37.863184927833146" lon="13.785068769128006"><ele>464.00000000000006</ele><time>2026-04-17T16:40:48.999Z</time></trkpt><trkpt lat="37.86323037773878" lon="13.785139404142365"><ele>464.0</ele><time>2026-04-17T16:40:49.999Z</time></trkpt><trkpt lat="37.86327133997169" lon="13.78521672478373"><ele>464.00000000000006</ele><time>2026-04-17T16:40:50.999Z</time></trkpt><trkpt lat="37.863313818672395" lon="13.785293242708784"><ele>464.00000000000006</ele><time>2026-04-17T16:40:51.999Z</time></trkpt><trkpt lat="37.8633562087211" lon="13.785367620728053"><ele>464.0</ele><time>2026-04-17T16:40:52.999Z</time></trkpt><trkpt lat="37.86339873876073" lon="13.785443535088204"><ele>464.00000000000006</ele><time>2026-04-17T16:40:53.999Z</time></trkpt><trkpt lat="37.86343928056632" lon="13.7855153252598"><ele>464.00000000000006</ele><time>2026-04-17T16:40:54.999Z</time></trkpt><trkpt lat="37.8634798541594" lon="13.78557919946119"><ele>459.0</ele><time>2026-04-17T16:40:55.999Z</time></trkpt><trkpt lat="37.863532923608894" lon="13.785622470107063"><ele>454.0</ele><time>2026-04-17T16:40:56.999Z</time></trkpt><trkpt lat="37.86364914937466" lon="13.78565332325703"><ele>449.0</ele><time>2026-04-17T16:40:58.999Z</time></trkpt><trkpt lat="37.86376272639589" lon="13.7856148860805"><ele>444.0</ele><time>2026-04-17T16:41:00.999Z</time></trkpt><trkpt lat="37.863851108964866" lon="13.785511580258325"><ele>439.0</ele><time>2026-04-17T16:41:02.999Z</time></trkpt><trkpt lat="37.863918738143255" lon="13.785379648160115"><ele>439.0</ele><time>2026-04-17T16:41:04.999Z</time></trkpt><trkpt lat="37.86394338207233" lon="13.785299732715936"><ele>439.0</ele><time>2026-04-17T16:41:05.999Z</time></trkpt><trkpt lat="37.86395410835801" lon="13.785208418313646"><ele>439.0</ele><time>2026-04-17T16:41:06.999Z</time></trkpt><trkpt lat="37.86398657734435" lon="13.785123611905364"><ele>439.0</ele><time>2026-04-17T16:41:07.999Z</time></trkpt><trkpt lat="37.86401285033388" lon="13.785031912075823"><ele>439.0</ele><time>2026-04-17T16:41:08.999Z</time></trkpt><trkpt lat="37.86403990450168" lon="13.784945715538056"><ele>439.0</ele><time>2026-04-17T16:41:09.999Z</time></trkpt><trkpt lat="37.86406977088308" lon="13.78486046100872"><ele>439.0</ele><time>2026-04-17T16:41:10.999Z</time></trkpt><trkpt lat="37.864149652796414" lon="13.78474633227667"><ele>440.1666666666667</ele><time>2026-04-17T16:41:12.999Z</time></trkpt><trkpt lat="37.864242237575375" lon="13.784673993969843"><ele>441.33333333333337</ele><time>2026-04-17T16:41:14.999Z</time></trkpt><trkpt lat="37.86435007760762" lon="13.784598782840815"><ele>442.5</ele><time>2026-04-17T16:41:16.999Z</time></trkpt><trkpt lat="37.86440366840882" lon="13.784556590501952"><ele>443.66666666666663</ele><time>2026-04-17T16:41:17.999Z</time></trkpt><trkpt lat="37.86445658432886" lon="13.784509848551048"><ele>444.8333333333333</ele><time>2026-04-17T16:41:18.999Z</time></trkpt><trkpt lat="37.864496648926746" lon="13.784435892037369"><ele>446.0</ele><time>2026-04-17T16:41:19.999Z</time></trkpt><trkpt lat="37.864542808659955" lon="13.784373562015544"><ele>443.7142857142857</ele><time>2026-04-17T16:41:20.999Z</time></trkpt><trkpt lat="37.86459591882819" lon="13.784317694539467"><ele>441.42857142857144</ele><time>2026-04-17T16:41:21.999Z</time></trkpt><trkpt lat="37.86464168308127" lon="13.784252474824944"><ele>439.1428571428571</ele><time>2026-04-17T16:41:22.999Z</time></trkpt><trkpt lat="37.86469356154154" lon="13.784196506758073"><ele>436.8571428571429</ele><time>2026-04-17T16:41:23.999Z</time></trkpt><trkpt lat="37.86473907999341" lon="13.784134875198745"><ele>434.5714285714286</ele><time>2026-04-17T16:41:24.999Z</time></trkpt><trkpt lat="37.864789431014266" lon="13.784082413278028"><ele>432.2857142857143</ele><time>2026-04-17T16:41:25.999Z</time></trkpt><trkpt lat="37.86483412215175" lon="13.784024157373388"><ele>430.0</ele><time>2026-04-17T16:41:26.999Z</time></trkpt><trkpt lat="37.86491669720315" lon="13.783921099170456"><ele>430.00000000000006</ele><time>2026-04-17T16:41:28.999Z</time></trkpt><trkpt lat="37.86498818100965" lon="13.78383987160042"><ele>430.0</ele><time>2026-04-17T16:41:30.999Z</time></trkpt><trkpt lat="37.86503055121201" lon="13.783775172378565"><ele>430.0</ele><time>2026-04-17T16:41:33.999Z</time></trkpt><trkpt lat="37.86509078622372" lon="13.78371116172303"><ele>430.0</ele><time>2026-04-17T16:41:36.998Z</time></trkpt><trkpt lat="37.86510264797014" lon="13.78358191252324"><ele>430.00000000000006</ele><time>2026-04-17T16:41:38.998Z</time></trkpt><trkpt lat="37.86511019867608" lon="13.783482575482008"><ele>430.0</ele><time>2026-04-17T16:41:40.998Z</time></trkpt><trkpt lat="37.86517577161618" lon="13.7834649605577"><ele>426.83333333333337</ele><time>2026-04-17T16:41:42.998Z</time></trkpt><trkpt lat="37.865260712656365" lon="13.783434279896941"><ele>423.6666666666667</ele><time>2026-04-17T16:41:44.998Z</time></trkpt><trkpt lat="37.865337495483516" lon="13.783430245115376"><ele>420.5</ele><time>2026-04-17T16:41:46.998Z</time></trkpt><trkpt lat="37.865410365327115" lon="13.783406113359458"><ele>417.33333333333337</ele><time>2026-04-17T16:41:48.998Z</time></trkpt><trkpt lat="37.865470825026364" lon="13.783372961237049"><ele>414.1666666666667</ele><time>2026-04-17T16:41:50.998Z</time></trkpt><trkpt lat="37.865465271298866" lon="13.783260008126298"><ele>411.0</ele><time>2026-04-17T16:41:52.998Z</time></trkpt><trkpt lat="37.865431794322134" lon="13.783144993102924"><ele>411.0</ele><time>2026-04-17T16:41:55Z</time></trkpt><trkpt lat="37.86539745772158" lon="13.783005498441076"><ele>411.0</ele><time>2026-04-17T16:41:57Z</time></trkpt><trkpt lat="37.86536508668116" lon="13.782861219528252"><ele>411.0</ele><time>2026-04-17T16:41:59Z</time></trkpt><trkpt lat="37.86531852918047" lon="13.782722038693652"><ele>411.0</ele><time>2026-04-17T16:42:01Z</time></trkpt><trkpt lat="37.865252257266874" lon="13.782623437310605"><ele>410.6666666666667</ele><time>2026-04-17T16:42:03Z</time></trkpt><trkpt lat="37.865235905559764" lon="13.782542285523109"><ele>410.33333333333337</ele><time>2026-04-17T16:42:06Z</time></trkpt><trkpt lat="37.865310458352056" lon="13.78249320473685"><ele>410.0</ele><time>2026-04-17T16:42:09Z</time></trkpt><trkpt lat="37.86537606276901" lon="13.782411881004503"><ele>409.6666666666667</ele><time>2026-04-17T16:42:12Z</time></trkpt><trkpt lat="37.865444489228224" lon="13.782350724298247"><ele>409.33333333333337</ele><time>2026-04-17T16:42:15Z</time></trkpt><trkpt lat="37.86551086805234" lon="13.782291836140365"><ele>409.0</ele><time>2026-04-17T16:42:18Z</time></trkpt><trkpt lat="37.86557713553163" lon="13.782221744218548"><ele>409.0</ele><time>2026-04-17T16:42:21Z</time></trkpt><trkpt lat="37.86564441164334" lon="13.782149204175353"><ele>409.0</ele><time>2026-04-17T16:42:24Z</time></trkpt><trkpt lat="37.86568744404174" lon="13.782081369295993"><ele>409.0</ele><time>2026-04-17T16:42:26Z</time></trkpt><trkpt lat="37.86574277534839" lon="13.782015929047637"><ele>409.0</ele><time>2026-04-17T16:42:28Z</time></trkpt><trkpt lat="37.86578215982396" lon="13.781947808812454"><ele>409.0</ele><time>2026-04-17T16:42:30Z</time></trkpt><trkpt lat="37.8657590386779" lon="13.781863846687228"><ele>409.0</ele><time>2026-04-17T16:42:31Z</time></trkpt><trkpt lat="37.86578404519742" lon="13.781780246248603"><ele>409.0</ele><time>2026-04-17T16:42:33Z</time></trkpt><trkpt lat="37.86581576784735" lon="13.781668750526734"><ele>408.1666666666667</ele><time>2026-04-17T16:42:34.999Z</time></trkpt><trkpt lat="37.86583020385542" lon="13.781586069781243"><ele>407.33333333333337</ele><time>2026-04-17T16:42:36.999Z</time></trkpt><trkpt lat="37.86586070177918" lon="13.781478741311261"><ele>406.5</ele><time>2026-04-17T16:42:38.999Z</time></trkpt><trkpt lat="37.865820488788785" lon="13.781340800200132"><ele>405.66666666666663</ele><time>2026-04-17T16:42:40.999Z</time></trkpt><trkpt lat="37.86579823282182" lon="13.781255329646653"><ele>404.8333333333333</ele><time>2026-04-17T16:42:41.999Z</time></trkpt><trkpt lat="37.8657766958274" lon="13.78114932571327"><ele>404.0</ele><time>2026-04-17T16:42:42.999Z</time></trkpt><trkpt lat="37.86575950179541" lon="13.78102380016088"><ele>403.79999999999995</ele><time>2026-04-17T16:42:43.999Z</time></trkpt><trkpt lat="37.86574436946902" lon="13.780887354279066"><ele>403.59999999999997</ele><time>2026-04-17T16:42:44.999Z</time></trkpt><trkpt lat="37.86572269428278" lon="13.780776419556416"><ele>403.4</ele><time>2026-04-17T16:42:45.999Z</time></trkpt><trkpt lat="37.86568897194631" lon="13.780674857410082"><ele>403.2</ele><time>2026-04-17T16:42:46.999Z</time></trkpt><trkpt lat="37.865642792059234" lon="13.780577340413439"><ele>403.0</ele><time>2026-04-17T16:42:47.999Z</time></trkpt><trkpt lat="37.86558539055346" lon="13.78048977527275"><ele>403.0</ele><time>2026-04-17T16:42:48.999Z</time></trkpt><trkpt lat="37.86551300448098" lon="13.780401255163154"><ele>403.0</ele><time>2026-04-17T16:42:49.999Z</time></trkpt><trkpt lat="37.86542111175932" lon="13.78030179600345"><ele>403.0</ele><time>2026-04-17T16:42:50.999Z</time></trkpt><trkpt lat="37.86532964367423" lon="13.780206176410621"><ele>403.0</ele><time>2026-04-17T16:42:51.999Z</time></trkpt><trkpt lat="37.865236061560815" lon="13.780113206522012"><ele>402.1666666666667</ele><time>2026-04-17T16:42:52.999Z</time></trkpt><trkpt lat="37.86515239308228" lon="13.780022389141328"><ele>401.33333333333337</ele><time>2026-04-17T16:42:53.999Z</time></trkpt><trkpt lat="37.86507299056359" lon="13.77993665543528"><ele>400.5</ele><time>2026-04-17T16:42:54.999Z</time></trkpt><trkpt lat="37.86502337468691" lon="13.779852877870962"><ele>399.66666666666663</ele><time>2026-04-17T16:42:55.999Z</time></trkpt><trkpt lat="37.86497694916833" lon="13.779794115822298"><ele>398.8333333333333</ele><time>2026-04-17T16:42:56.999Z</time></trkpt><trkpt lat="37.86492941654223" lon="13.779731382915106"><ele>398.0</ele><time>2026-04-17T16:43:23.999Z</time></trkpt><trkpt lat="37.86486182746545" lon="13.779643729814193"><ele>399.2</ele><time>2026-04-17T16:43:40.998Z</time></trkpt><trkpt lat="37.86481076622303" lon="13.779575247379542"><ele>400.4</ele><time>2026-04-17T16:43:42.998Z</time></trkpt><trkpt lat="37.8647336554951" lon="13.779472677548178"><ele>401.59999999999997</ele><time>2026-04-17T16:43:44.998Z</time></trkpt><trkpt lat="37.86465601629645" lon="13.779376696396367"><ele>402.79999999999995</ele><time>2026-04-17T16:43:46.998Z</time></trkpt><trkpt lat="37.864602730871795" lon="13.779313986823087"><ele>404.0</ele><time>2026-04-17T16:43:48.998Z</time></trkpt><trkpt lat="37.86467806165273" lon="13.77923331782053"><ele>404.0</ele><time>2026-04-17T16:43:52.998Z</time></trkpt><trkpt lat="37.8647329010252" lon="13.779166917905265"><ele>404.0</ele><time>2026-04-17T16:43:54.998Z</time></trkpt><trkpt lat="37.86478790008874" lon="13.7791000152928"><ele>404.0</ele><time>2026-04-17T16:43:56.998Z</time></trkpt><trkpt lat="37.864841096401726" lon="13.779034947313479"><ele>404.0</ele><time>2026-04-17T16:43:58.998Z</time></trkpt><trkpt lat="37.86488320660273" lon="13.778955585974861"><ele>404.0</ele><time>2026-04-17T16:44:01Z</time></trkpt><trkpt lat="37.8649375598345" lon="13.778899929674251"><ele>404.0</ele><time>2026-04-17T16:44:03Z</time></trkpt><trkpt lat="37.86499320830865" lon="13.778840763342782"><ele>404.0</ele><time>2026-04-17T16:44:05Z</time></trkpt><trkpt lat="37.86504250834527" lon="13.778786013608185"><ele>404.0</ele><time>2026-04-17T16:44:09Z</time></trkpt><trkpt lat="37.86511788338546" lon="13.778701869467136"><ele>388.0</ele><time>2026-04-17T16:44:56.999Z</time></trkpt><trkpt lat="37.86508092575181" lon="13.778627817049422"><ele>404.0</ele><time>2026-04-17T16:44:58.999Z</time></trkpt></trkseg></trk></gpx>